createdAt,value
2023-04-03T00:01:20.279Z,5.57
2023-04-03T00:04:06.147Z,5.55
2023-04-03T00:06:52.010Z,5.53
2023-04-03T00:09:37.064Z,5.49
2023-04-03T00:12:21.648Z,5.46
2023-04-03T00:15:06.861Z,5.44
2023-04-03T00:17:51.358Z,5.45
2023-04-03T00:20:36.582Z,5.42
2023-04-03T00:23:23.889Z,5.40
2023-04-03T00:26:08.886Z,5.40
2023-04-03T00:28:54.648Z,5.35
2023-04-03T00:31:39.606Z,5.35
2023-04-03T00:34:25.793Z,5.35
2023-04-03T00:37:10.800Z,5.23
2023-04-03T00:39:55.851Z,5.15
2023-04-03T00:42:42.499Z,5.08
2023-04-03T00:45:39.646Z,5.07
2023-04-03T00:48:36.495Z,5.02
2023-04-03T00:51:25.516Z,4.99
2023-04-03T00:54:10.942Z,4.92
2023-04-03T00:56:58.126Z,4.90
2023-04-03T00:59:47.200Z,4.86
2023-04-03T01:02:32.246Z,4.86
2023-04-03T01:05:21.055Z,4.87
2023-04-03T01:08:06.787Z,4.90
2023-04-03T01:10:52.279Z,4.89
2023-04-03T01:13:39.928Z,4.88
2023-04-03T01:16:25.759Z,4.82
2023-04-03T01:19:16.813Z,4.79
2023-04-03T01:22:17.554Z,4.76
2023-04-03T01:25:02.318Z,4.70
2023-04-03T01:27:47.387Z,4.67
2023-04-03T01:30:37.264Z,4.64
2023-04-03T01:33:22.131Z,4.61
2023-04-03T01:36:10.844Z,4.56
2023-04-03T01:38:56.923Z,4.55
2023-04-03T01:41:41.605Z,4.56
2023-04-03T01:44:34.432Z,4.52
2023-04-03T01:47:20.038Z,4.51
2023-04-03T01:50:05.216Z,4.49
2023-04-03T01:52:51.934Z,4.49
2023-04-03T01:55:36.823Z,4.47
2023-04-03T01:58:21.799Z,4.45
2023-04-03T02:06:00.702Z,4.38
2023-04-03T02:08:45.616Z,4.31
2023-04-03T02:11:31.184Z,4.28
2023-04-03T02:14:16.078Z,4.23
2023-04-03T02:17:05.332Z,4.19
2023-04-03T02:19:50.212Z,4.16
2023-04-03T02:22:36.017Z,4.15
2023-04-03T02:25:20.913Z,4.11
2023-04-03T02:28:06.402Z,4.08
2023-04-03T02:30:51.336Z,4.01
2023-04-03T02:33:37.077Z,3.97
2023-04-03T02:36:24.575Z,3.95
2023-04-03T02:39:13.804Z,3.90
2023-04-03T02:41:58.475Z,3.87
2023-04-03T02:44:43.650Z,3.91
2023-04-03T02:47:28.596Z,3.92
2023-04-03T02:50:13.252Z,3.96
2023-04-03T02:52:58.304Z,3.93
2023-04-03T02:55:43.268Z,3.87
2023-04-03T02:58:30.672Z,3.79
2023-04-03T03:01:18.415Z,3.68
2023-04-03T03:04:03.238Z,3.69
2023-04-03T03:06:48.245Z,3.68
2023-04-03T03:09:33.320Z,3.65
2023-04-03T03:12:21.977Z,3.65
2023-04-03T03:15:08.569Z,3.60
2023-04-03T03:17:53.128Z,3.54
2023-04-03T03:20:38.951Z,3.51
2023-04-03T03:23:25.752Z,3.54
2023-04-03T03:26:11.609Z,3.51
2023-04-03T03:28:56.383Z,3.51
2023-04-03T03:31:41.404Z,3.49
2023-04-03T03:34:26.244Z,3.44
2023-04-03T03:37:10.712Z,3.36
2023-04-03T03:39:55.904Z,3.36
2023-04-03T03:42:41.103Z,3.35
2023-04-03T03:45:25.976Z,3.27
2023-04-03T03:48:10.986Z,3.30
2023-04-03T03:50:56.046Z,3.28
2023-04-03T03:53:45.123Z,3.23
2023-04-03T03:56:34.125Z,3.15
2023-04-03T03:59:19.744Z,3.14
2023-04-03T04:02:04.608Z,3.14
2023-04-03T04:04:49.912Z,3.15
2023-04-03T04:07:34.697Z,3.15
2023-04-03T04:10:20.639Z,3.10
2023-04-03T04:13:05.587Z,3.12
2023-04-03T04:15:50.266Z,3.12
2023-04-03T04:18:35.905Z,3.02
2023-04-03T04:21:20.853Z,2.95
2023-04-03T04:24:06.793Z,2.90
2023-04-03T04:26:51.835Z,2.88
2023-04-03T04:29:38.247Z,2.79
2023-04-03T04:32:25.283Z,2.79
2023-04-03T04:35:10.591Z,2.76
2023-04-03T04:37:59.082Z,2.74
2023-04-03T04:40:44.127Z,2.71
2023-04-03T04:43:29.667Z,2.68
2023-04-03T04:46:14.746Z,2.62
2023-04-03T04:49:05.010Z,2.60
2023-04-03T04:51:52.286Z,2.57
2023-04-03T04:54:41.954Z,2.57
2023-04-03T04:57:27.804Z,2.63
2023-04-03T05:00:13.986Z,2.66
2023-04-03T05:02:58.684Z,2.69
2023-04-03T05:05:43.748Z,2.75
2023-04-03T05:08:28.687Z,2.78
2023-04-03T05:11:13.827Z,2.78
2023-04-03T05:13:59.930Z,2.78
2023-04-03T05:16:46.533Z,2.72
2023-04-03T05:19:31.247Z,2.70
2023-04-03T05:22:16.671Z,2.69
2023-04-03T05:25:01.752Z,2.63
2023-04-03T05:27:46.392Z,2.62
2023-04-03T05:30:31.091Z,2.57
2023-04-03T05:33:15.732Z,2.59
2023-04-03T05:36:08.340Z,2.59
2023-04-03T05:38:58.857Z,2.59
2023-04-03T05:41:44.416Z,2.62
2023-04-03T05:44:29.982Z,2.67
2023-04-03T05:47:15.718Z,2.69
2023-04-03T05:50:00.430Z,2.70
2023-04-03T05:52:48.943Z,2.63
2023-04-03T05:55:34.120Z,2.56
2023-04-03T05:58:18.942Z,2.51
2023-04-03T06:01:06.046Z,2.49
2023-04-03T06:03:51.510Z,2.48
2023-04-03T06:06:53.002Z,2.47
2023-04-03T06:09:38.338Z,2.36
2023-04-03T06:12:23.609Z,2.34
2023-04-03T06:15:10.464Z,2.33
2023-04-03T06:17:55.799Z,2.42
2023-04-03T06:20:41.021Z,2.47
2023-04-03T06:23:25.876Z,2.45
2023-04-03T06:26:10.837Z,2.48
2023-04-03T06:28:56.302Z,2.52
2023-04-03T06:31:41.478Z,2.54
2023-04-03T06:34:26.389Z,2.56
2023-04-03T06:37:17.858Z,2.57
2023-04-03T06:40:03.565Z,2.52
2023-04-03T06:42:48.251Z,2.49
2023-04-03T06:45:33.088Z,2.51
2023-04-03T06:48:18.642Z,2.57
2023-04-03T06:51:03.165Z,2.64
2023-04-03T06:53:48.792Z,2.62
2023-04-03T06:56:33.862Z,2.67
2023-04-03T06:59:19.943Z,2.65
2023-04-03T07:02:10.716Z,2.64
2023-04-03T07:04:58.421Z,2.73
2023-04-03T07:07:43.291Z,2.77
2023-04-03T07:10:28.464Z,2.59
2023-04-03T07:13:13.577Z,2.44
2023-04-03T07:16:01.261Z,2.55
2023-04-03T07:18:46.888Z,2.63
2023-04-03T07:21:31.804Z,2.68
2023-04-03T07:24:16.953Z,2.82
2023-04-03T07:27:01.838Z,2.84
2023-04-03T07:29:48.453Z,2.85
2023-04-03T07:32:33.849Z,2.91
2023-04-03T07:35:19.389Z,2.88
2023-04-03T07:38:04.231Z,2.94
2023-04-03T07:40:50.326Z,2.93
2023-04-03T07:43:35.374Z,3.00
2023-04-03T07:46:21.018Z,3.06
2023-04-03T07:49:05.765Z,3.10
2023-04-03T07:51:51.901Z,3.19
2023-04-03T07:54:37.044Z,3.23
2023-04-03T07:57:21.607Z,3.13
2023-04-03T08:00:07.255Z,3.13
2023-04-03T08:02:56.535Z,3.07
2023-04-03T08:05:43.741Z,3.08
2023-04-03T08:08:30.246Z,3.07
2023-04-03T08:11:15.196Z,3.09
2023-04-03T08:14:00.536Z,3.14
2023-04-03T08:16:47.640Z,3.33
2023-04-03T08:19:32.460Z,3.62
2023-04-03T08:22:17.094Z,3.67
2023-04-03T08:25:02.284Z,3.59
2023-04-03T08:27:47.164Z,3.30
2023-04-03T08:30:31.998Z,3.02
2023-04-03T08:33:16.891Z,2.89
2023-04-03T08:36:03.790Z,2.90
2023-04-03T08:38:49.860Z,3.04
2023-04-03T08:41:40.143Z,3.04
2023-04-03T08:44:37.489Z,3.09
2023-04-03T08:47:36.582Z,3.12
2023-04-03T08:50:29.245Z,3.12
2023-04-03T08:53:39.629Z,3.02
2023-04-03T08:56:26.130Z,2.88
2023-04-03T08:59:16.162Z,2.76
2023-04-03T09:02:07.215Z,2.68
2023-04-03T09:04:51.772Z,2.96
2023-04-03T09:07:42.645Z,3.21
2023-04-03T09:10:37.839Z,3.18
2023-04-03T09:13:36.949Z,3.34
2023-04-03T09:16:33.837Z,3.21
2023-04-03T09:19:48.216Z,3.19
2023-04-03T09:22:45.631Z,3.21
2023-04-03T09:25:39.052Z,3.26
2023-04-03T09:28:23.960Z,3.43
2023-04-03T09:31:21.273Z,3.41
2023-04-03T09:34:15.438Z,3.32
2023-04-03T09:37:09.009Z,3.14
2023-04-03T09:39:55.511Z,3.09
2023-04-03T09:42:46.277Z,3.19
2023-04-03T09:45:35.531Z,3.47
2023-04-03T09:48:23.801Z,3.45
2023-04-03T09:51:16.374Z,3.50
2023-04-03T09:54:32.010Z,3.48
2023-04-03T09:57:16.774Z,3.68
2023-04-03T10:00:05.217Z,4.00
2023-04-03T10:02:54.461Z,4.07
2023-04-03T10:05:42.111Z,4.23
2023-04-03T10:08:34.992Z,3.91
2023-04-03T10:11:19.745Z,3.56
2023-04-03T10:14:07.267Z,3.09
2023-04-03T10:17:11.600Z,2.86
2023-04-03T10:19:59.708Z,2.86
2023-04-03T10:22:56.579Z,2.96
2023-04-03T10:25:55.979Z,2.86
2023-04-03T10:28:52.610Z,2.87
2023-04-03T10:31:40.997Z,3.07
2023-04-03T10:34:36.971Z,3.18
2023-04-03T10:37:30.366Z,3.15
2023-04-03T10:40:42.906Z,2.97
2023-04-03T10:43:53.688Z,3.19
2023-04-03T10:46:42.595Z,3.16
2023-04-03T10:49:42.454Z,3.16
2023-04-03T10:52:29.461Z,3.02
2023-04-03T10:55:25.137Z,3.06
2023-04-03T10:58:26.706Z,3.20
2023-04-03T11:01:34.077Z,3.39
2023-04-03T11:04:21.595Z,3.48
2023-04-03T11:07:39.590Z,3.32
2023-04-03T11:10:42.290Z,3.30
2023-04-03T11:13:42.935Z,3.49
2023-04-03T11:16:33.570Z,3.60
2023-04-03T11:19:42.103Z,3.59
2023-04-03T11:22:56.343Z,3.60
2023-04-03T11:25:45.163Z,3.58
2023-04-03T11:28:30.832Z,3.52
2023-04-03T11:31:30.566Z,3.35
2023-04-03T11:34:23.863Z,3.41
2023-04-03T11:37:18.113Z,3.40
2023-04-03T11:40:28.565Z,3.28
2023-04-03T11:43:26.625Z,3.19
2023-04-03T11:46:11.351Z,3.11
2023-04-03T11:48:56.792Z,3.15
2023-04-03T11:51:43.168Z,3.28
2023-04-03T11:54:46.402Z,3.21
2023-04-03T11:58:04.587Z,3.09
2023-04-03T12:00:51.829Z,3.07
2023-04-03T12:03:45.643Z,2.93
2023-04-03T12:06:33.562Z,2.93
2023-04-03T12:09:35.281Z,2.89
2023-04-03T12:12:26.566Z,2.71
2023-04-03T12:15:26.673Z,2.72
2023-04-03T12:18:43.868Z,2.70
2023-04-03T12:21:34.414Z,2.74
2023-04-03T12:24:21.996Z,2.75
2023-04-03T12:27:24.095Z,2.83
2023-04-03T12:30:35.552Z,3.18
2023-04-03T12:33:41.637Z,3.28
2023-04-03T12:36:51.843Z,3.29
2023-04-03T12:40:01.568Z,3.31
2023-04-03T12:43:05.680Z,3.44
2023-04-03T12:46:04.470Z,3.56
2023-04-03T12:48:55.790Z,3.51
2023-04-03T12:51:46.805Z,3.52
2023-04-03T12:54:42.521Z,3.61
2023-04-03T12:57:28.015Z,3.67
2023-04-03T13:00:31.064Z,3.68
2023-04-03T13:03:27.196Z,3.59
2023-04-03T13:06:19.542Z,3.53
2023-04-03T13:09:04.682Z,3.29
2023-04-03T13:12:14.590Z,3.21
2023-04-03T13:15:04.499Z,3.07
2023-04-03T13:17:51.886Z,2.87
2023-04-03T13:20:37.736Z,2.90
2023-04-03T13:23:23.705Z,2.92
2023-04-03T13:26:09.439Z,3.08
2023-04-03T13:28:59.802Z,3.15
2023-04-03T13:31:45.195Z,3.18
2023-04-03T13:34:38.069Z,3.25
2023-04-03T13:37:30.442Z,3.23
2023-04-03T13:40:15.411Z,3.21
2023-04-03T13:43:01.650Z,3.07
2023-04-03T13:46:05.486Z,3.16
2023-04-03T13:48:53.529Z,3.17
2023-04-03T13:51:39.164Z,3.19
2023-04-03T13:54:30.676Z,3.07
2023-04-03T13:57:17.058Z,3.06
2023-04-03T14:00:34.533Z,2.98
2023-04-03T14:03:25.796Z,2.84
2023-04-03T14:06:15.789Z,2.79
2023-04-03T14:09:00.362Z,2.70
2023-04-03T14:11:47.765Z,2.73
2023-04-03T14:14:36.022Z,2.64
2023-04-03T14:17:25.608Z,2.64
2023-04-03T14:20:18.753Z,2.58
2023-04-03T14:23:03.540Z,2.48
2023-04-03T14:25:48.741Z,2.49
2023-04-03T14:28:33.964Z,2.56
2023-04-03T14:31:19.364Z,2.58
2023-04-03T14:34:04.106Z,2.49
2023-04-03T14:36:48.985Z,2.47
2023-04-03T14:39:33.835Z,2.47
2023-04-03T14:42:23.052Z,2.40
2023-04-03T14:45:11.076Z,2.30
2023-04-03T14:47:57.621Z,2.21
2023-04-03T14:50:51.648Z,2.20
2023-04-03T14:53:45.304Z,2.12
2023-04-03T14:56:30.484Z,2.11
2023-04-03T14:59:17.909Z,2.06
2023-04-03T15:02:02.758Z,2.00
2023-04-03T15:04:47.562Z,1.91
2023-04-03T15:07:38.356Z,1.85
2023-04-03T15:10:30.009Z,1.68
2023-04-03T15:13:15.034Z,1.66
2023-04-03T15:15:59.972Z,1.66
2023-04-03T15:18:46.243Z,1.65
2023-04-03T15:21:31.242Z,1.64
2023-04-03T15:24:16.280Z,1.57
2023-04-03T15:27:01.798Z,1.53
2023-04-03T15:29:46.835Z,1.48
2023-04-03T15:32:32.610Z,1.48
2023-04-03T15:35:17.279Z,1.46
2023-04-03T15:38:02.089Z,1.39
2023-04-03T15:40:47.561Z,1.35
2023-04-03T15:43:34.104Z,1.39
2023-04-03T15:46:18.941Z,1.41
2023-04-03T15:49:04.232Z,1.40
2023-04-03T15:51:49.050Z,1.33
2023-04-03T15:54:34.143Z,1.30
2023-04-03T15:57:19.408Z,1.30
2023-04-03T16:00:05.400Z,1.25
2023-04-03T16:02:57.789Z,1.20
2023-04-03T16:05:42.956Z,1.16
2023-04-03T16:08:28.270Z,1.11
2023-04-03T16:11:13.134Z,1.10
2023-04-03T16:13:58.301Z,1.10
2023-04-03T16:16:43.092Z,1.13
2023-04-03T16:19:29.171Z,1.06
2023-04-03T16:22:13.793Z,1.03
2023-04-03T16:24:58.984Z,0.96
2023-04-03T16:27:44.092Z,0.95
2023-04-03T16:30:28.703Z,0.91
2023-04-03T16:33:13.932Z,0.90
2023-04-03T16:35:59.037Z,0.83
2023-04-03T16:38:43.668Z,0.86
2023-04-03T16:41:28.258Z,0.89
2023-04-03T16:44:14.014Z,0.87
2023-04-03T16:46:59.258Z,0.89
2023-04-03T16:49:44.360Z,0.88
2023-04-03T16:52:29.342Z,0.84
2023-04-03T16:55:13.966Z,0.81
2023-04-03T16:57:58.747Z,0.82
2023-04-03T17:00:43.900Z,0.78
2023-04-03T17:03:28.784Z,0.77
2023-04-03T17:06:17.877Z,0.78
2023-04-03T17:09:03.055Z,0.75
2023-04-03T17:11:49.270Z,0.75
2023-04-03T17:14:34.443Z,0.78
2023-04-03T17:17:21.646Z,0.82
2023-04-03T17:20:07.335Z,0.81
2023-04-03T17:22:52.275Z,0.81
2023-04-03T17:25:37.106Z,0.77
2023-04-03T17:28:27.903Z,0.80
2023-04-03T17:31:12.416Z,0.81
2023-04-03T17:33:57.729Z,0.83
2023-04-03T17:36:42.970Z,0.81
2023-04-03T17:39:27.468Z,0.86
2023-04-03T17:42:12.590Z,0.79
2023-04-03T17:44:56.966Z,0.76
2023-04-03T17:47:41.648Z,0.77
2023-04-03T17:50:26.067Z,0.78
2023-04-03T17:53:11.219Z,0.74
2023-04-03T17:55:56.224Z,0.76
2023-04-03T17:58:41.869Z,0.73
2023-04-03T18:01:30.372Z,0.74
2023-04-03T18:04:15.484Z,0.69
2023-04-03T18:07:01.355Z,0.68
2023-04-03T18:09:47.457Z,0.68
2023-04-03T18:12:32.541Z,0.69
2023-04-03T18:15:17.640Z,0.68
2023-04-03T18:18:02.561Z,0.68
2023-04-03T18:20:47.315Z,0.65
2023-04-03T18:23:34.621Z,0.64
2023-04-03T18:26:21.205Z,0.63
2023-04-03T18:29:08.295Z,0.60
2023-04-03T18:31:55.792Z,0.60
2023-04-03T18:34:40.940Z,0.56
2023-04-03T18:37:26.119Z,0.62
2023-04-03T18:40:11.179Z,0.65
2023-04-03T18:42:55.934Z,0.59
2023-04-03T18:45:40.876Z,0.59
2023-04-03T18:48:26.546Z,0.56
2023-04-03T18:51:12.768Z,0.61
2023-04-03T18:53:57.813Z,0.64
2023-04-03T18:56:42.829Z,0.58
2023-04-03T18:59:27.826Z,0.61
2023-04-03T19:02:13.607Z,0.59
2023-04-03T19:04:58.485Z,0.60
2023-04-03T19:07:44.243Z,0.59
2023-04-03T19:10:30.142Z,0.62
2023-04-03T19:13:15.175Z,0.62
2023-04-03T19:16:00.066Z,0.58
2023-04-03T19:18:44.999Z,0.59
2023-04-03T19:21:30.548Z,0.56
2023-04-03T19:24:15.656Z,0.53
2023-04-03T19:27:00.893Z,0.46
2023-04-03T19:29:48.430Z,0.53
2023-04-03T19:32:33.987Z,0.50
2023-04-03T19:35:19.061Z,0.50
2023-04-03T19:38:04.549Z,0.51
2023-04-03T19:40:49.635Z,0.51
2023-04-03T19:43:34.865Z,0.48
2023-04-03T19:46:23.979Z,0.46
2023-04-03T19:49:09.797Z,0.44
2023-04-03T19:51:54.871Z,0.44
2023-04-03T19:54:39.795Z,0.40
2023-04-03T19:57:24.528Z,0.40
2023-04-03T20:00:09.805Z,0.36
2023-04-03T20:02:55.853Z,0.34
2023-04-03T20:05:41.075Z,0.31
2023-04-03T20:08:27.726Z,0.30
2023-04-03T20:11:12.804Z,0.31
2023-04-03T20:13:57.416Z,0.31
2023-04-03T20:16:44.033Z,0.30
2023-04-03T20:19:29.993Z,0.25
2023-04-03T20:22:15.016Z,0.22
2023-04-03T20:25:05.990Z,0.22
2023-04-03T20:27:53.633Z,0.14
2023-04-03T20:30:39.767Z,0.13
2023-04-03T20:33:27.627Z,0.10
2023-04-03T20:36:12.836Z,0.08
2023-04-03T20:38:57.705Z,0.06
2023-04-03T20:41:42.674Z,0.00
2023-04-03T20:44:28.315Z,-0.04
2023-04-03T20:47:13.580Z,-0.09
2023-04-03T20:49:58.744Z,-0.16
2023-04-03T20:52:43.588Z,-0.19
2023-04-03T20:55:29.465Z,-0.24
2023-04-03T20:58:14.037Z,-0.25
2023-04-03T21:00:59.583Z,-0.30
2023-04-03T21:03:45.581Z,-0.32
2023-04-03T21:07:07.735Z,-0.33
2023-04-03T21:10:30.162Z,-0.34
2023-04-03T21:13:53.058Z,-0.33
2023-04-03T21:16:37.980Z,-0.35
2023-04-03T21:19:22.771Z,-0.36
2023-04-03T21:22:07.942Z,-0.36
2023-04-03T21:24:53.117Z,-0.38
2023-04-03T21:27:38.263Z,-0.36
2023-04-03T21:30:22.814Z,-0.38
2023-04-03T21:33:07.855Z,-0.38
2023-04-03T21:35:58.135Z,-0.39
2023-04-03T21:38:46.165Z,-0.42
2023-04-03T21:41:30.957Z,-0.41
2023-04-03T21:44:16.183Z,-0.40
2023-04-03T21:47:00.829Z,-0.39
2023-04-03T21:49:47.051Z,-0.41
2023-04-03T21:52:32.177Z,-0.39
2023-04-03T21:55:16.943Z,-0.40
2023-04-03T21:58:01.797Z,-0.40
2023-04-03T22:00:47.605Z,-0.42
2023-04-03T22:03:34.223Z,-0.39
2023-04-03T22:06:18.868Z,-0.38
2023-04-03T22:09:03.597Z,-0.37
2023-04-03T22:11:48.532Z,-0.38
2023-04-03T22:14:33.284Z,-0.36
2023-04-03T22:17:17.931Z,-0.38
2023-04-03T22:20:03.172Z,-0.36
2023-04-03T22:22:50.058Z,-0.38
2023-04-03T22:25:34.717Z,-0.37
2023-04-03T22:28:20.086Z,-0.34
2023-04-03T22:31:10.273Z,-0.34
2023-04-03T22:33:55.495Z,-0.35
2023-04-03T22:36:42.457Z,-0.35
2023-04-03T22:39:27.021Z,-0.33
2023-04-03T22:42:12.079Z,-0.37
2023-04-03T22:44:57.656Z,-0.35
2023-04-03T22:47:42.610Z,-0.33
2023-04-03T22:50:27.477Z,-0.32
2023-04-03T22:53:12.346Z,-0.33
2023-04-03T22:55:58.518Z,-0.27
2023-04-03T22:58:44.170Z,-0.32
2023-04-03T23:01:29.676Z,-0.32
2023-04-03T23:04:14.552Z,-0.32
2023-04-03T23:06:59.693Z,-0.32
2023-04-03T23:09:44.126Z,-0.32
2023-04-03T23:12:28.780Z,-0.32
2023-04-03T23:15:14.728Z,-0.31
2023-04-03T23:17:59.242Z,-0.32
2023-04-03T23:20:43.858Z,-0.32
2023-04-03T23:23:28.812Z,-0.31
2023-04-03T23:26:13.757Z,-0.32
2023-04-03T23:28:58.549Z,-0.33
2023-04-03T23:31:43.241Z,-0.33
2023-04-03T23:34:28.084Z,-0.33
2023-04-03T23:37:13.415Z,-0.37
2023-04-03T23:39:58.173Z,-0.36
2023-04-03T23:42:42.912Z,-0.37
2023-04-03T23:45:28.043Z,-0.35
2023-04-03T23:48:13.022Z,-0.39
2023-04-03T23:50:58.065Z,-0.43
2023-04-03T23:53:42.900Z,-0.45
2023-04-03T23:56:28.088Z,-0.45
2023-04-03T23:59:12.773Z,-0.44
